Time;durP1;ratioP1;P1;durP2;ratioP2;P2;SDS_P1;SDS_P2;PMS_P1;PMS_P2;Temp;Humidity;BMP_temperature;BMP_pressure;BME280_temperature;BME280_humidity;BME280_pressure;Samples;Min_cycle;Max_cycle;Signal;HPM_P1;HPM_P2
2022/04/05 00:00:43;;;;;;;10.67;7.20;;;;;;;;;;5053623;28;20417;-81
2022/04/05 00:03:09;;;;;;;8.17;6.63;;;;;;;;;;5053356;28;20445;-80
2022/04/05 00:05:35;;;;;;;10.30;7.00;;;;;;;;;;5053327;28;20504;-78
2022/04/05 00:08:01;;;;;;;8.53;6.50;;;;;;;;;;5053568;28;20403;-78
2022/04/05 00:10:27;;;;;;;8.53;6.40;;;;;;;;;;5053442;28;20766;-79
2022/04/05 00:12:53;;;;;;;9.97;7.50;;;;;;;;;;5052100;28;20442;-78
2022/04/05 00:15:19;;;;;;;10.70;7.10;;;;;;;;;;5053407;28;20414;-78
2022/04/05 00:17:45;;;;;;;9.53;6.97;;;;;;;;;;5053336;28;20468;-78
2022/04/05 00:20:12;;;;;;;9.93;6.93;;;;;;;;;;5052488;28;20404;-79
2022/04/05 00:22:38;;;;;;;8.03;6.00;;;;;;;;;;5053375;28;20399;-78
2022/04/05 00:25:04;;;;;;;9.23;6.87;;;;;;;;;;5053143;28;20489;-78
2022/04/05 00:27:30;;;;;;;8.60;6.37;;;;;;;;;;5053034;28;20473;-80
2022/04/05 00:29:56;;;;;;;10.03;6.87;;;;;;;;;;5053025;28;20947;-79
2022/04/05 00:32:22;;;;;;;11.93;7.37;;;;;;;;;;5053236;28;20493;-80
2022/04/05 00:34:48;;;;;;;14.30;7.87;;;;;;;;;;5051885;28;20579;-79
2022/04/05 00:37:14;;;;;;;10.93;7.23;;;;;;;;;;5053006;28;20509;-78
2022/04/05 00:39:40;;;;;;;9.30;7.40;;;;;;;;;;5051823;28;20399;-78
2022/04/05 00:42:09;;;;;;;10.13;6.50;;;;;;;;;;5051717;28;20449;-79
2022/04/05 00:44:35;;;;;;;12.10;7.30;;;;;;;;;;5053056;28;20406;-80
2022/04/05 00:47:11;;;;;;;9.03;7.03;;;;;;;;;;5052929;28;20469;-76
2022/04/05 00:49:37;;;;;;;7.83;6.63;;;;;;;;;;5052951;28;20451;-77
2022/04/05 00:52:03;;;;;;;10.23;6.90;;;;;;;;;;5052958;28;20431;-79
2022/04/05 00:54:30;;;;;;;11.13;7.20;;;;;;;;;;5052941;28;20797;-77
2022/04/05 00:56:57;;;;;;;10.63;6.97;;;;;;;;;;5052796;28;20437;-78
2022/04/05 00:59:29;;;;;;;9.10;6.93;;;;;;;;;;5052749;28;20432;-79
2022/04/05 01:01:56;;;;;;;11.13;7.40;;;;;;;;;;5052832;28;20547;-78
2022/04/05 01:04:22;;;;;;;9.13;6.60;;;;;;;;;;5052624;28;20545;-79
2022/04/05 01:06:49;;;;;;;8.60;6.27;;;;;;;;;;5052644;28;20461;-71
2022/04/05 01:09:15;;;;;;;9.03;7.20;;;;;;;;;;5052964;28;20889;-77
2022/04/05 01:11:41;;;;;;;8.20;6.10;;;;;;;;;;5052751;28;20450;-75
2022/04/05 01:14:07;;;;;;;9.30;6.97;;;;;;;;;;5052749;28;20438;-78
2022/04/05 01:16:35;;;;;;;10.63;6.90;;;;;;;;;;5052848;28;20413;-77
2022/04/05 01:19:01;;;;;;;11.20;6.67;;;;;;;;;;5052687;28;20471;-78
2022/04/05 01:21:27;;;;;;;11.67;7.80;;;;;;;;;;5052740;28;20406;-78
2022/04/05 01:24:06;;;;;;;10.53;6.90;;;;;;;;;;5052677;28;20402;-78
2022/04/05 01:27:01;;;;;;;10.00;6.97;;;;;;;;;;5052562;28;20469;-79
2022/04/05 01:29:28;;;;;;;9.73;6.90;;;;;;;;;;5051875;28;20443;-78
2022/04/05 01:32:00;;;;;;;9.70;7.37;;;;;;;;;;5054522;28;20440;-81
2022/04/05 01:34:28;;;;;;;11.97;7.20;;;;;;;;;;5056314;28;20417;-79
2022/04/05 01:36:55;;;;;;;10.03;6.47;;;;;;;;;;5056186;28;20432;-78
2022/04/05 01:39:22;;;;;;;7.53;6.43;;;;;;;;;;5056294;28;20403;-78
2022/04/05 01:41:56;;;;;;;8.30;7.27;;;;;;;;;;5056284;28;20399;-78
2022/04/05 01:44:22;;;;;;;10.47;6.80;;;;;;;;;;5056211;28;20401;-78
2022/04/05 01:46:48;;;;;;;12.43;7.07;;;;;;;;;;5055956;28;20465;-79
2022/04/05 01:49:14;;;;;;;10.30;6.83;;;;;;;;;;5055982;28;20408;-75
2022/04/05 01:51:41;;;;;;;9.13;7.07;;;;;;;;;;5056112;28;20422;-79
2022/04/05 01:54:08;;;;;;;9.27;7.00;;;;;;;;;;5056030;28;20402;-79
2022/04/05 01:56:35;;;;;;;8.77;6.70;;;;;;;;;;5055986;28;20890;-76
2022/04/05 01:59:01;;;;;;;8.50;6.67;;;;;;;;;;5055840;28;20442;-81
2022/04/05 02:01:27;;;;;;;9.20;6.50;;;;;;;;;;5055887;28;20437;-80
2022/04/05 02:03:53;;;;;;;9.43;7.27;;;;;;;;;;5055554;28;20516;-77
2022/04/05 02:06:19;;;;;;;11.43;6.93;;;;;;;;;;5055635;28;20563;-80
2022/04/05 02:08:45;;;;;;;8.67;6.30;;;;;;;;;;5055590;28;20455;-79
2022/04/05 02:11:11;;;;;;;7.90;6.20;;;;;;;;;;5055669;28;20983;-79
2022/04/05 02:13:37;;;;;;;9.13;7.00;;;;;;;;;;5055586;28;20461;-79
2022/04/05 02:16:04;;;;;;;11.30;6.50;;;;;;;;;;5055681;28;20428;-79
2022/04/05 02:18:30;;;;;;;9.37;6.53;;;;;;;;;;5055561;28;20401;-80
2022/04/05 02:20:56;;;;;;;9.70;7.17;;;;;;;;;;5055460;28;20402;-79
2022/04/05 02:23:23;;;;;;;8.40;6.80;;;;;;;;;;5055589;28;20397;-78
2022/04/05 02:25:49;;;;;;;8.90;6.20;;;;;;;;;;5054005;28;20458;-79
2022/04/05 02:28:15;;;;;;;8.37;5.80;;;;;;;;;;5055282;28;20496;-79
2022/04/05 02:30:41;;;;;;;8.73;6.77;;;;;;;;;;5055233;28;20505;-77
2022/04/05 02:33:07;;;;;;;11.20;7.00;;;;;;;;;;5055248;28;20923;-76
2022/04/05 02:35:33;;;;;;;7.77;6.00;;;;;;;;;;5055269;28;20421;-77
2022/04/05 02:38:00;;;;;;;9.77;6.50;;;;;;;;;;5053797;28;20760;-78
2022/04/05 02:40:27;;;;;;;7.40;6.10;;;;;;;;;;5055185;28;20405;-79
2022/04/05 02:42:53;;;;;;;10.20;7.27;;;;;;;;;;5054335;28;21005;-77
2022/04/05 02:45:19;;;;;;;10.33;6.53;;;;;;;;;;5054846;28;20771;-78
2022/04/05 02:47:45;;;;;;;7.10;6.07;;;;;;;;;;5054933;28;20909;-80
2022/04/05 02:50:11;;;;;;;9.00;6.90;;;;;;;;;;5054985;28;20398;-79
2022/04/05 02:52:37;;;;;;;8.40;6.40;;;;;;;;;;5055286;28;20823;-78
2022/04/05 02:55:04;;;;;;;8.23;6.57;;;;;;;;;;5054952;28;20403;-78
2022/04/05 02:57:30;;;;;;;10.00;6.43;;;;;;;;;;5054695;28;20955;-76
2022/04/05 02:59:56;;;;;;;10.60;7.03;;;;;;;;;;5054745;28;20437;-79
2022/04/05 03:02:22;;;;;;;9.50;6.27;;;;;;;;;;5054842;28;20531;-79
2022/04/05 03:04:48;;;;;;;7.60;5.90;;;;;;;;;;5054508;28;20472;-77
2022/04/05 03:07:15;;;;;;;11.83;6.80;;;;;;;;;;5054580;28;20470;-79
2022/04/05 03:09:41;;;;;;;8.60;6.87;;;;;;;;;;5054587;28;20513;-78
2022/04/05 03:12:07;;;;;;;10.37;6.90;;;;;;;;;;5054657;28;20417;-79
2022/04/05 03:14:33;;;;;;;9.67;6.53;;;;;;;;;;5054396;28;20915;-78
2022/04/05 03:16:59;;;;;;;9.33;6.60;;;;;;;;;;5053160;28;20413;-79
2022/04/05 03:19:25;;;;;;;9.80;6.97;;;;;;;;;;5054387;28;20400;-79
2022/04/05 03:21:51;;;;;;;9.63;6.80;;;;;;;;;;5054384;28;20410;-78
2022/04/05 03:24:18;;;;;;;8.30;6.13;;;;;;;;;;5053832;28;20770;-78
2022/04/05 03:26:43;;;;;;;9.30;6.57;;;;;;;;;;5054187;28;20468;-79
2022/04/05 03:29:09;;;;;;;8.63;6.23;;;;;;;;;;5054267;28;20421;-79
2022/04/05 03:31:35;;;;;;;11.10;6.60;;;;;;;;;;5052974;28;20424;-79
2022/04/05 03:34:02;;;;;;;7.70;6.23;;;;;;;;;;5054025;28;20434;-78
2022/04/05 03:36:28;;;;;;;9.43;6.30;;;;;;;;;;5054083;28;20437;-78
2022/04/05 03:38:54;;;;;;;9.17;7.20;;;;;;;;;;5054042;28;20401;-79
2022/04/05 03:41:21;;;;;;;10.33;7.07;;;;;;;;;;5054025;28;20437;-79
2022/04/05 03:43:47;;;;;;;9.03;6.40;;;;;;;;;;5053776;28;20382;-80
2022/04/05 03:46:13;;;;;;;8.97;6.30;;;;;;;;;;5053745;28;20478;-79
2022/04/05 03:48:39;;;;;;;8.37;6.50;;;;;;;;;;5053934;28;20414;-80
2022/04/05 03:51:09;;;;;;;8.27;6.47;;;;;;;;;;5053819;28;20397;-79
2022/04/05 03:53:35;;;;;;;10.00;6.67;;;;;;;;;;5053775;28;20484;-80
2022/04/05 03:56:01;;;;;;;8.60;6.63;;;;;;;;;;5053634;28;20900;-80
2022/04/05 03:58:27;;;;;;;9.40;5.50;;;;;;;;;;5053553;28;20547;-76
2022/04/05 04:00:53;;;;;;;13.30;6.70;;;;;;;;;;5052377;28;20419;-80
2022/04/05 04:03:19;;;;;;;13.57;6.77;;;;;;;;;;5051985;28;20453;-79
2022/04/05 04:05:45;;;;;;;8.50;6.17;;;;;;;;;;5053426;28;20862;-79
2022/04/05 04:08:11;;;;;;;10.30;6.00;;;;;;;;;;5053569;28;20447;-77
2022/04/05 04:10:37;;;;;;;8.77;6.43;;;;;;;;;;5053453;28;20505;-80
2022/04/05 04:13:03;;;;;;;8.87;6.20;;;;;;;;;;5052202;28;20760;-81
2022/04/05 04:15:29;;;;;;;8.67;6.17;;;;;;;;;;5053449;28;20914;-76
2022/04/05 04:17:55;;;;;;;7.80;5.77;;;;;;;;;;5053281;28;20493;-78
2022/04/05 04:20:21;;;;;;;10.43;6.20;;;;;;;;;;5053360;28;20501;-81
2022/04/05 04:22:47;;;;;;;9.60;6.90;;;;;;;;;;5051950;28;20445;-81
2022/04/05 04:25:13;;;;;;;12.40;6.17;;;;;;;;;;5053309;28;20407;-80
2022/04/05 04:27:39;;;;;;;8.70;6.47;;;;;;;;;;5053280;28;20821;-80
2022/04/05 04:30:06;;;;;;;8.40;6.90;;;;;;;;;;5053207;28;20506;-81
2022/04/05 04:32:32;;;;;;;7.80;6.13;;;;;;;;;;5053281;28;20415;-82
2022/04/05 04:34:57;;;;;;;8.00;6.63;;;;;;;;;;5053153;28;20424;-81
2022/04/05 04:37:24;;;;;;;10.50;7.50;;;;;;;;;;5053243;28;20406;-76
2022/04/05 04:39:50;;;;;;;8.60;6.50;;;;;;;;;;5053224;28;20411;-79
2022/04/05 04:42:16;;;;;;;9.80;7.27;;;;;;;;;;5053006;28;20906;-82
2022/04/05 04:44:42;;;;;;;10.80;7.10;;;;;;;;;;5053116;28;20407;-81
2022/04/05 04:47:08;;;;;;;11.40;6.97;;;;;;;;;;5052936;28;20977;-78
2022/04/05 04:49:34;;;;;;;9.77;6.80;;;;;;;;;;5052986;28;20397;-78
2022/04/05 04:52:00;;;;;;;9.27;7.40;;;;;;;;;;5052963;28;20455;-77
2022/04/05 04:54:26;;;;;;;8.83;6.93;;;;;;;;;;5053078;28;20463;-77
2022/04/05 04:56:52;;;;;;;11.00;7.50;;;;;;;;;;5052984;28;20824;-77
2022/04/05 04:59:18;;;;;;;10.23;8.00;;;;;;;;;;5051572;28;21021;-77
2022/04/05 05:01:44;;;;;;;8.83;7.10;;;;;;;;;;5052905;28;20421;-76
2022/04/05 05:04:10;;;;;;;11.23;7.13;;;;;;;;;;5052581;28;20463;-79
2022/04/05 05:06:36;;;;;;;13.83;7.70;;;;;;;;;;5054410;28;20506;-74
2022/04/05 05:09:03;;;;;;;8.77;7.00;;;;;;;;;;5056849;28;20407;-77
2022/04/05 05:11:29;;;;;;;11.60;7.30;;;;;;;;;;5055581;28;20452;-75
2022/04/05 05:13:55;;;;;;;8.40;6.93;;;;;;;;;;5057069;28;20491;-75
2022/04/05 05:16:21;;;;;;;9.00;7.40;;;;;;;;;;5056891;28;20507;-74
2022/04/05 05:18:47;;;;;;;10.57;7.60;;;;;;;;;;5056558;28;20415;-71
2022/04/05 05:21:13;;;;;;;9.90;7.50;;;;;;;;;;5056995;28;21006;-66
2022/04/05 05:23:39;;;;;;;11.70;7.90;;;;;;;;;;5056455;28;20398;-76
2022/04/05 05:26:05;;;;;;;8.73;7.00;;;;;;;;;;5056401;28;20568;-68
2022/04/05 05:28:31;;;;;;;10.00;7.40;;;;;;;;;;5056483;28;20409;-70
2022/04/05 05:30:58;;;;;;;10.23;7.20;;;;;;;;;;5056436;28;20421;-77
2022/04/05 05:33:24;;;;;;;11.07;7.87;;;;;;;;;;5056461;28;20444;-80
2022/04/05 05:35:50;;;;;;;10.20;7.07;;;;;;;;;;5056423;28;20999;-74
2022/04/05 05:38:16;;;;;;;10.37;7.63;;;;;;;;;;5056395;28;20418;-73
2022/04/05 05:40:42;;;;;;;10.50;7.33;;;;;;;;;;5056135;28;20401;-73
2022/04/05 05:43:09;;;;;;;8.37;6.53;;;;;;;;;;5056001;28;20809;-74
2022/04/05 05:45:35;;;;;;;9.40;7.40;;;;;;;;;;5056006;28;20465;-78
2022/04/05 05:48:02;;;;;;;8.23;6.60;;;;;;;;;;5055888;28;20430;-74
2022/04/05 05:50:28;;;;;;;8.50;6.93;;;;;;;;;;5056105;28;20490;-79
2022/04/05 05:52:54;;;;;;;9.57;7.03;;;;;;;;;;5056059;28;20409;-80
2022/04/05 05:55:21;;;;;;;9.40;6.90;;;;;;;;;;5054584;28;20437;-77
2022/04/05 05:57:47;;;;;;;10.20;7.03;;;;;;;;;;5055642;28;20415;-76
2022/04/05 06:00:20;;;;;;;12.23;7.13;;;;;;;;;;5055748;28;20433;-77
2022/04/05 06:02:47;;;;;;;10.63;6.90;;;;;;;;;;5055588;28;20401;-72
2022/04/05 06:05:13;;;;;;;10.13;7.63;;;;;;;;;;5055805;28;20509;-70
2022/04/05 06:07:41;;;;;;;8.60;7.20;;;;;;;;;;5054212;28;20465;-72
2022/04/05 06:10:07;;;;;;;11.53;7.97;;;;;;;;;;5055647;28;20410;-75
2022/04/05 06:12:36;;;;;;;10.00;7.90;;;;;;;;;;5055533;28;20402;-75
2022/04/05 06:15:02;;;;;;;10.00;7.50;;;;;;;;;;5055432;28;20439;-76
2022/04/05 06:17:28;;;;;;;12.40;7.97;;;;;;;;;;5054375;28;20402;-76
2022/04/05 06:19:55;;;;;;;9.40;7.63;;;;;;;;;;5055195;28;20792;-76
2022/04/05 06:22:21;;;;;;;9.70;7.10;;;;;;;;;;5055127;28;20489;-72
2022/04/05 06:24:48;;;;;;;9.40;7.63;;;;;;;;;;5055294;28;20412;-73
2022/04/05 06:27:14;;;;;;;8.70;7.33;;;;;;;;;;5055151;28;20468;-74
2022/04/05 06:29:40;;;;;;;10.27;7.93;;;;;;;;;;5053808;28;20429;-69
2022/04/05 06:32:07;;;;;;;11.97;8.20;;;;;;;;;;5055208;28;20434;-76
2022/04/05 06:34:32;;;;;;;12.30;7.40;;;;;;;;;;5055217;28;20890;-76
2022/04/05 06:36:58;;;;;;;8.60;6.97;;;;;;;;;;5055137;28;20428;-75
2022/04/05 06:39:25;;;;;;;11.47;6.83;;;;;;;;;;5055145;28;20470;-75
2022/04/05 06:41:52;;;;;;;11.90;8.07;;;;;;;;;;5054921;28;20449;-72
2022/04/05 06:44:18;;;;;;;7.97;6.90;;;;;;;;;;5054744;28;20401;-75
2022/04/05 06:46:45;;;;;;;10.10;7.20;;;;;;;;;;5054802;28;20467;-76
2022/04/05 06:49:11;;;;;;;9.50;6.90;;;;;;;;;;5054793;28;20409;-76
2022/04/05 06:51:37;;;;;;;9.13;7.10;;;;;;;;;;5053507;28;20858;-73
2022/04/05 06:54:05;;;;;;;8.97;6.83;;;;;;;;;;5054786;28;20757;-74
2022/04/05 06:56:31;;;;;;;10.13;7.13;;;;;;;;;;5054783;28;20407;-77
2022/04/05 06:58:57;;;;;;;13.20;7.63;;;;;;;;;;5053438;28;20441;-77
2022/04/05 07:01:23;;;;;;;9.00;6.90;;;;;;;;;;5054602;28;20417;-77
2022/04/05 07:03:49;;;;;;;10.83;7.30;;;;;;;;;;5054400;28;20469;-74
2022/04/05 07:06:15;;;;;;;9.40;6.60;;;;;;;;;;5054556;28;20514;-69
2022/04/05 07:08:41;;;;;;;7.43;6.30;;;;;;;;;;5054479;28;20477;-76
2022/04/05 07:11:07;;;;;;;8.50;6.60;;;;;;;;;;5054452;28;20758;-71
2022/04/05 07:13:33;;;;;;;9.53;6.93;;;;;;;;;;5054559;28;20405;-76
2022/04/05 07:15:59;;;;;;;12.17;7.57;;;;;;;;;;5054418;28;20928;-77
2022/04/05 07:18:25;;;;;;;8.27;6.50;;;;;;;;;;5054436;28;20429;-76
2022/04/05 07:20:52;;;;;;;10.87;7.20;;;;;;;;;;5054314;28;20420;-77
2022/04/05 07:23:19;;;;;;;8.47;7.03;;;;;;;;;;5054288;28;20413;-75
2022/04/05 07:25:45;;;;;;;9.10;6.80;;;;;;;;;;5054054;28;20497;-67
2022/04/05 07:28:11;;;;;;;9.77;7.77;;;;;;;;;;5054012;28;20423;-75
2022/04/05 07:30:37;;;;;;;12.57;6.67;;;;;;;;;;5053513;28;20398;-74
2022/04/05 07:33:03;;;;;;;9.87;6.17;;;;;;;;;;5053992;28;20413;-73
2022/04/05 07:35:29;;;;;;;7.50;6.00;;;;;;;;;;5053888;28;20405;-75
2022/04/05 07:37:55;;;;;;;9.20;6.63;;;;;;;;;;5052716;28;20454;-76
2022/04/05 07:40:21;;;;;;;10.70;6.13;;;;;;;;;;5054036;28;20403;-75
2022/04/05 07:42:48;;;;;;;9.60;6.90;;;;;;;;;;5052580;28;20416;-73
2022/04/05 07:45:15;;;;;;;10.30;6.80;;;;;;;;;;5053742;28;20892;-75
2022/04/05 07:47:42;;;;;;;10.47;6.33;;;;;;;;;;5053554;28;20954;-73
2022/04/05 07:50:08;;;;;;;6.60;5.90;;;;;;;;;;5053558;28;20456;-68
2022/04/05 07:52:34;;;;;;;10.07;6.30;;;;;;;;;;5053769;28;20460;-74
2022/04/05 07:55:00;;;;;;;9.00;6.23;;;;;;;;;;5052307;28;20763;-67
2022/04/05 07:57:26;;;;;;;9.63;7.10;;;;;;;;;;5053395;28;20449;-75
2022/04/05 07:59:52;;;;;;;8.43;6.63;;;;;;;;;;5052141;28;20463;-75
2022/04/05 08:02:19;;;;;;;9.17;7.67;;;;;;;;;;5053494;28;20414;-70
2022/04/05 08:04:45;;;;;;;11.60;6.20;;;;;;;;;;5051950;28;20500;-76
2022/04/05 08:07:11;;;;;;;9.83;6.10;;;;;;;;;;5053189;28;20464;-77
2022/04/05 08:09:38;;;;;;;9.07;6.70;;;;;;;;;;5053276;28;20437;-72
2022/04/05 08:12:04;;;;;;;9.07;6.47;;;;;;;;;;5053439;28;20455;-74
2022/04/05 08:14:31;;;;;;;9.10;5.50;;;;;;;;;;5052060;28;20417;-70
2022/04/05 08:16:57;;;;;;;7.87;6.30;;;;;;;;;;5053295;28;20471;-75
2022/04/05 08:19:24;;;;;;;8.77;6.70;;;;;;;;;;5053302;28;20416;-72
2022/04/05 08:21:50;;;;;;;10.73;6.80;;;;;;;;;;5053358;28;20410;-74
2022/04/05 08:24:17;;;;;;;6.87;5.50;;;;;;;;;;5053124;28;20509;-71
2022/04/05 08:26:44;;;;;;;8.67;6.33;;;;;;;;;;5053014;28;20940;-73
2022/04/05 08:29:10;;;;;;;8.43;6.00;;;;;;;;;;5053160;28;20554;-74
2022/04/05 08:31:36;;;;;;;10.17;6.80;;;;;;;;;;5053207;28;20408;-77
2022/04/05 08:34:02;;;;;;;8.33;6.20;;;;;;;;;;5053177;28;20394;-77
2022/04/05 08:36:28;;;;;;;6.97;5.80;;;;;;;;;;5053056;28;20795;-76
2022/04/05 08:38:54;;;;;;;9.27;6.13;;;;;;;;;;5052978;28;20487;-76
2022/04/05 08:41:20;;;;;;;10.57;6.80;;;;;;;;;;5052240;28;20413;-76
2022/04/05 08:43:48;;;;;;;8.23;6.23;;;;;;;;;;5052902;28;20394;-76
2022/04/05 08:46:15;;;;;;;8.00;5.63;;;;;;;;;;5052758;28;20464;-75
2022/04/05 08:48:41;;;;;;;9.10;5.70;;;;;;;;;;5052794;28;20405;-75
2022/04/05 08:51:07;;;;;;;7.40;6.17;;;;;;;;;;5052820;28;20413;-76
2022/04/05 08:53:36;;;;;;;10.03;7.20;;;;;;;;;;5052841;28;20925;-77
2022/04/05 08:56:02;;;;;;;7.93;6.40;;;;;;;;;;5052824;28;20923;-74
2022/04/05 08:58:28;;;;;;;14.73;5.70;;;;;;;;;;5052721;28;20422;-76
2022/04/05 09:00:54;;;;;;;9.47;6.10;;;;;;;;;;5051413;28;20422;-70
2022/04/05 09:03:20;;;;;;;7.13;5.93;;;;;;;;;;5052501;28;20453;-77
2022/04/05 09:05:47;;;;;;;7.57;6.07;;;;;;;;;;5052649;28;20524;-77
2022/04/05 09:08:33;;;;;;;8.87;5.87;;;;;;;;;;5052691;28;20451;-77
2022/04/05 09:11:05;;;;;;;7.77;5.60;;;;;;;;;;5052559;28;20412;-77
2022/04/05 09:13:31;;;;;;;5.07;4.67;;;;;;;;;;5052592;28;20892;-73
2022/04/05 09:15:59;;;;;;;6.60;5.00;;;;;;;;;;5052641;28;20435;-76
2022/04/05 09:18:35;;;;;;;6.03;5.40;;;;;;;;;;5052675;28;20402;-71
2022/04/05 09:21:02;;;;;;;6.77;4.37;;;;;;;;;;5052619;28;20421;-76
2022/04/05 09:23:29;;;;;;;7.70;4.40;;;;;;;;;;5052628;28;20405;-76
2022/04/05 09:26:06;;;;;;;7.97;5.23;;;;;;;;;;5052561;28;20468;-73
2022/04/05 09:28:33;;;;;;;10.03;4.90;;;;;;;;;;5052455;28;20421;-73
2022/04/05 09:31:01;;;;;;;6.37;5.00;;;;;;;;;;5051407;28;20734;-77
2022/04/05 09:33:28;;;;;;;7.57;4.60;;;;;;;;;;5052513;28;20433;-74
2022/04/05 09:36:02;;;;;;;6.83;5.00;;;;;;;;;;5052525;28;20457;-75
2022/04/05 09:38:28;;;;;;;5.53;5.00;;;;;;;;;;5052462;28;20894;-76
2022/04/05 09:40:54;;;;;;;9.57;4.83;;;;;;;;;;5052424;28;20399;-69
2022/04/05 09:43:22;;;;;;;6.40;5.10;;;;;;;;;;5052403;28;20962;-77
2022/04/05 09:45:51;;;;;;;5.60;4.50;;;;;;;;;;5051026;28;20471;-77
2022/04/05 09:48:18;;;;;;;6.73;4.73;;;;;;;;;;5052308;28;20411;-77
2022/04/05 09:51:03;;;;;;;7.83;5.27;;;;;;;;;;5052364;28;20500;-75
2022/04/05 09:53:30;;;;;;;6.83;5.10;;;;;;;;;;5055157;28;20433;-74
2022/04/05 09:56:07;;;;;;;7.30;5.17;;;;;;;;;;5055851;28;20492;-74
2022/04/05 09:58:34;;;;;;;7.90;5.90;;;;;;;;;;5055839;28;20505;-70
2022/04/05 10:01:08;;;;;;;6.67;4.90;;;;;;;;;;5055713;28;20436;-77
2022/04/05 10:03:37;;;;;;;7.73;5.17;;;;;;;;;;5055305;28;20449;-76
2022/04/05 10:06:03;;;;;;;5.87;4.63;;;;;;;;;;5055509;28;20452;-75
2022/04/05 10:08:34;;;;;;;5.70;5.13;;;;;;;;;;5054299;28;20434;-71
2022/04/05 10:11:00;;;;;;;5.73;4.90;;;;;;;;;;5055621;28;20409;-77
2022/04/05 10:13:27;;;;;;;7.67;5.57;;;;;;;;;;5055680;28;20441;-71
2022/04/05 10:15:54;;;;;;;6.23;5.07;;;;;;;;;;5055614;28;20418;-76
2022/04/05 10:18:20;;;;;;;11.80;6.70;;;;;;;;;;5055470;28;20903;-77
2022/04/05 10:20:49;;;;;;;8.27;4.90;;;;;;;;;;5055379;28;20410;-75
2022/04/05 10:23:20;;;;;;;7.83;5.30;;;;;;;;;;5055305;28;20412;-76
2022/04/05 10:25:50;;;;;;;8.07;4.80;;;;;;;;;;5053821;28;20422;-75
2022/04/05 10:28:19;;;;;;;7.40;5.57;;;;;;;;;;5053730;28;20402;-75
2022/04/05 10:30:48;;;;;;;7.77;5.27;;;;;;;;;;5055038;28;20410;-74
2022/04/05 10:33:26;;;;;;;8.20;6.00;;;;;;;;;;5055177;28;20402;-72
2022/04/05 10:35:58;;;;;;;6.30;4.80;;;;;;;;;;5054795;28;20397;-73
2022/04/05 10:38:24;;;;;;;7.10;5.20;;;;;;;;;;5055176;28;20872;-71
2022/04/05 10:41:09;;;;;;;5.77;5.20;;;;;;;;;;5055068;28;20916;-75
2022/04/05 10:43:38;;;;;;;10.73;5.43;;;;;;;;;;5054925;28;20452;-71
2022/04/05 10:46:05;;;;;;;8.90;5.43;;;;;;;;;;5054782;28;20546;-75
2022/04/05 10:48:31;;;;;;;7.13;5.90;;;;;;;;;;5053607;28;20422;-75
2022/04/05 10:51:00;;;;;;;7.03;5.57;;;;;;;;;;5054752;28;20456;-76
2022/04/05 10:53:32;;;;;;;6.57;5.30;;;;;;;;;;5054910;28;20417;-76
2022/04/05 10:56:03;;;;;;;9.20;5.27;;;;;;;;;;5054782;28;20495;-71
2022/04/05 10:58:40;;;;;;;6.20;5.60;;;;;;;;;;5054652;28;20430;-71
2022/04/05 11:01:21;;;;;;;6.77;5.13;;;;;;;;;;5053429;28;20397;-76
2022/04/05 11:04:06;;;;;;;10.53;6.30;;;;;;;;;;5053604;28;20462;-70
2022/04/05 11:06:52;;;;;;;7.90;5.27;;;;;;;;;;5054530;28;20469;-76
2022/04/05 11:09:25;;;;;;;6.10;5.50;;;;;;;;;;5053119;28;20413;-74
2022/04/05 11:11:51;;;;;;;5.87;5.00;;;;;;;;;;5054532;28;20413;-76
2022/04/05 11:14:38;;;;;;;6.60;5.27;;;;;;;;;;5054554;28;20390;-75
2022/04/05 11:17:06;;;;;;;7.47;5.20;;;;;;;;;;5054450;28;20425;-75
2022/04/05 11:19:34;;;;;;;5.90;4.83;;;;;;;;;;5054333;28;20443;-75
2022/04/05 11:22:03;;;;;;;5.63;4.60;;;;;;;;;;5053152;28;20434;-75
2022/04/05 11:24:48;;;;;;;7.10;4.87;;;;;;;;;;5054283;28;20417;-76
2022/04/05 11:27:33;;;;;;;5.50;4.50;;;;;;;;;;5054118;28;20488;-72
2022/04/05 11:30:17;;;;;;;4.87;4.17;;;;;;;;;;5054021;28;20465;-75
2022/04/05 11:33:02;;;;;;;5.33;4.20;;;;;;;;;;5054259;28;20400;-76
2022/04/05 11:35:28;;;;;;;4.40;4.00;;;;;;;;;;5054059;28;20493;-76
2022/04/05 11:37:54;;;;;;;4.83;4.27;;;;;;;;;;5053999;28;20409;-76
2022/04/05 11:40:20;;;;;;;4.57;4.17;;;;;;;;;;5054033;28;20417;-74
2022/04/05 11:42:46;;;;;;;6.30;4.17;;;;;;;;;;5053940;28;20896;-72
2022/04/05 11:45:12;;;;;;;4.60;4.20;;;;;;;;;;5054010;28;20417;-76
2022/04/05 11:47:38;;;;;;;4.73;4.23;;;;;;;;;;5053782;28;20894;-75
2022/04/05 11:50:08;;;;;;;4.83;4.03;;;;;;;;;;5053732;28;20753;-73
2022/04/05 11:52:34;;;;;;;5.83;4.70;;;;;;;;;;5053812;28;20409;-75
2022/04/05 11:58:25;;;;;;;4.10;3.60;;;;;;;;;;5071242;28;20903;-76
2022/04/05 12:00:51;;;;;;;5.63;3.70;;;;;;;;;;5056335;28;20410;-76
2022/04/05 12:03:17;;;;;;;6.07;4.27;;;;;;;;;;5051924;28;20507;-76
2022/04/05 12:05:44;;;;;;;4.10;3.70;;;;;;;;;;5053387;28;20397;-75
2022/04/05 12:08:11;;;;;;;4.77;3.73;;;;;;;;;;5053554;28;20430;-75
2022/04/05 12:10:37;;;;;;;4.43;3.80;;;;;;;;;;5053478;28;20417;-75
2022/04/05 12:13:03;;;;;;;5.23;3.87;;;;;;;;;;5052179;28;20529;-73
2022/04/05 12:15:30;;;;;;;6.23;4.00;;;;;;;;;;5053352;28;20492;-75
2022/04/05 12:18:15;;;;;;;4.83;4.00;;;;;;;;;;5053369;28;20872;-75
2022/04/05 12:20:41;;;;;;;5.70;3.90;;;;;;;;;;5053150;28;20410;-78
2022/04/05 12:23:20;;;;;;;4.27;3.37;;;;;;;;;;5053159;28;20425;-76
2022/04/05 12:26:05;;;;;;;5.57;3.90;;;;;;;;;;5053233;28;20405;-75
2022/04/05 12:28:32;;;;;;;6.53;3.93;;;;;;;;;;5053279;28;20461;-76
2022/04/05 12:31:05;;;;;;;4.67;3.37;;;;;;;;;;5053242;28;20409;-73
2022/04/05 12:33:31;;;;;;;4.13;3.50;;;;;;;;;;5053146;28;20747;-75
2022/04/05 12:35:58;;;;;;;4.13;3.73;;;;;;;;;;5052993;28;20463;-76
2022/04/05 12:38:24;;;;;;;4.57;4.17;;;;;;;;;;5053099;28;20401;-77
2022/04/05 12:40:50;;;;;;;4.50;3.27;;;;;;;;;;5051727;28;20521;-74
2022/04/05 12:43:17;;;;;;;5.60;3.87;;;;;;;;;;5052976;28;20902;-75
2022/04/05 12:45:43;;;;;;;6.07;3.60;;;;;;;;;;5052825;28;20934;-75
2022/04/05 12:48:16;;;;;;;3.57;3.17;;;;;;;;;;5052940;28;20422;-77
2022/04/05 12:50:43;;;;;;;4.83;3.43;;;;;;;;;;5052939;28;20907;-75
2022/04/05 12:53:09;;;;;;;3.50;2.93;;;;;;;;;;5051598;28;20468;-76
2022/04/05 12:55:35;;;;;;;3.40;3.10;;;;;;;;;;5051655;28;20822;-75
2022/04/05 12:58:01;;;;;;;3.60;3.30;;;;;;;;;;5052817;28;20420;-76
2022/04/05 13:00:28;;;;;;;3.20;2.90;;;;;;;;;;5052927;28;20764;-75
2022/04/05 13:03:03;;;;;;;3.53;2.67;;;;;;;;;;5052563;28;20409;-74
2022/04/05 13:08:16;;;;;;;4.33;2.63;;;;;;;;;;5052846;28;20416;-76
2022/04/05 13:10:46;;;;;;;3.47;3.17;;;;;;;;;;5051521;28;20915;-75
2022/04/05 13:13:27;;;;;;;7.07;3.07;;;;;;;;;;5052780;28;20418;-78
2022/04/05 13:16:02;;;;;;;5.60;2.67;;;;;;;;;;5052767;28;20483;-78
2022/04/05 13:18:33;;;;;;;3.07;2.77;;;;;;;;;;5051443;28;20923;-76
2022/04/05 13:21:03;;;;;;;3.53;2.47;;;;;;;;;;5052670;28;20428;-78
2022/04/05 13:23:31;;;;;;;4.10;2.73;;;;;;;;;;5052483;28;20762;-75
2022/04/05 13:25:57;;;;;;;3.17;2.70;;;;;;;;;;5052612;28;20408;-76
2022/04/05 13:28:34;;;;;;;4.77;2.73;;;;;;;;;;5054140;28;21029;-76
2022/04/05 13:31:06;;;;;;;3.30;3.00;;;;;;;;;;5056642;28;20439;-76
2022/04/05 13:33:32;;;;;;;2.87;2.67;;;;;;;;;;5056543;28;20390;-77
2022/04/05 13:35:58;;;;;;;6.03;2.93;;;;;;;;;;5055062;28;20471;-78
2022/04/05 13:38:26;;;;;;;3.87;3.10;;;;;;;;;;5056335;28;20405;-76
2022/04/05 13:40:53;;;;;;;3.37;3.07;;;;;;;;;;5056217;28;20409;-74
2022/04/05 13:43:19;;;;;;;3.80;3.40;;;;;;;;;;5056209;28;20406;-77
2022/04/05 13:45:45;;;;;;;4.93;3.03;;;;;;;;;;5055976;28;20413;-76
2022/04/05 13:48:11;;;;;;;3.00;2.80;;;;;;;;;;5056056;28;20484;-78
2022/04/05 13:50:37;;;;;;;3.20;3.00;;;;;;;;;;5056025;28;20935;-72
2022/04/05 13:53:03;;;;;;;3.20;2.93;;;;;;;;;;5056051;28;20437;-76
2022/04/05 13:55:29;;;;;;;3.10;2.60;;;;;;;;;;5056046;28;20405;-78
2022/04/05 13:57:55;;;;;;;3.93;2.83;;;;;;;;;;5055980;28;20409;-76
2022/04/05 14:00:23;;;;;;;3.97;3.27;;;;;;;;;;5055883;28;20417;-75
2022/04/05 14:02:52;;;;;;;4.10;3.10;;;;;;;;;;5055683;28;20402;-74
2022/04/05 14:05:18;;;;;;;3.67;2.80;;;;;;;;;;5055940;28;20437;-76
2022/04/05 14:07:44;;;;;;;3.27;2.60;;;;;;;;;;5054535;28;20479;-78
2022/04/05 14:10:12;;;;;;;3.47;3.17;;;;;;;;;;5055763;28;20452;-76
2022/04/05 14:12:38;;;;;;;3.13;2.87;;;;;;;;;;5054358;28;20809;-75
2022/04/05 14:15:05;;;;;;;3.33;3.03;;;;;;;;;;5055631;28;20810;-73
2022/04/05 14:17:31;;;;;;;3.70;3.10;;;;;;;;;;5055465;28;20398;-73
2022/04/05 14:19:57;;;;;;;3.03;2.17;;;;;;;;;;5055543;28;20448;-76
2022/04/05 14:22:23;;;;;;;2.57;2.37;;;;;;;;;;5055616;28;20404;-66
2022/04/05 14:24:49;;;;;;;3.27;2.90;;;;;;;;;;5055527;28;20409;-72
2022/04/05 14:27:15;;;;;;;3.53;3.00;;;;;;;;;;5055272;28;20469;-77
2022/04/05 14:29:41;;;;;;;2.47;2.27;;;;;;;;;;5055328;28;20426;-70
2022/04/05 14:32:08;;;;;;;3.77;3.13;;;;;;;;;;5055455;28;20746;-69
2022/04/05 14:34:34;;;;;;;2.63;2.43;;;;;;;;;;5055359;28;20884;-68
2022/04/05 14:37:00;;;;;;;2.93;2.63;;;;;;;;;;5055148;28;20516;-74
2022/04/05 14:39:26;;;;;;;4.30;3.17;;;;;;;;;;5054044;28;20410;-71
2022/04/05 14:41:52;;;;;;;3.20;2.70;;;;;;;;;;5055214;28;20409;-72
2022/04/05 14:44:18;;;;;;;2.83;2.60;;;;;;;;;;5055087;28;20413;-77
2022/04/05 14:46:44;;;;;;;5.77;2.47;;;;;;;;;;5054927;28;20476;-76
2022/04/05 14:49:10;;;;;;;2.50;2.30;;;;;;;;;;5054960;28;20443;-74